VTSP Airport Information

Runway Information
Runway 09 Length 9843 ft width 148 ft Elevation 19 ft Threshold N/A Heading 85
Runway 27 Length 9843 ft Width 148 ft Elevation 82 ft Threshold N/A Heading 265
Airport Frequencies
Type APP Name APP Frequency 124.7 MHZ
Type ATIS Name ATIS Frequency 128 MHZ
Type GND Name GND Frequency 121.9 MHZ
Type TWR Name TWR Frequency 118.1 MHZ
Airport Navaids
Type NDB Name Phuket Frequency 360 KHZ
Type VOR-DME Name Phuket Frequency 116900 KHZ
Airport Weather Information & NOTAM
ADDS - METARS form results

(2123 UTC 29 January 2023)
Data provider http://aviationweather.gov/metar/data/
 
METAR text: VTSP 292100Z 07009KT 020V100 9999 FEW020 SCT100 25/22 Q1009 NOSIG
Conditions at: VTSP (PHUKET INTL AIRP, TH) observed 2100 UTC 29 January 2023
Temperature: 25.0°C (77°F)
Dewpoint: 22.0°C (72°F) [RH = 83%]
Pressure (altimeter): 29.79 inches Hg (1009.0 mb)
Winds: from the ENE (70 degrees) at 10 MPH (9 knots; 4.6 m/s)
Visibility: 6 or more miles (10+ km)
Ceiling: at least 12,000 feet AGL
Clouds: few clouds at 2000 feet AGL
scattered clouds at 10000 feet AGL
Weather: no significant weather observed at this time

METAR text: VTSP 292030Z 07008KT 9999 SCT020 25/22 Q1009 NOSIG
Conditions at: VTSP (PHUKET INTL AIRP, TH) observed 2030 UTC 29 January 2023
Temperature: 25.0°C (77°F)
Dewpoint: 22.0°C (72°F) [RH = 83%]
Pressure (altimeter): 29.79 inches Hg (1009.0 mb)
Winds: from the ENE (70 degrees) at 9 MPH (8 knots; 4.1 m/s)
Visibility: 6 or more miles (10+ km)
Ceiling: at least 12,000 feet AGL
Clouds: scattered clouds at 2000 feet AGL
Weather: no significant weather observed at this time

Forecast for: VTSP (PHUKET INTL AIRP, TH)
Text: TAF VTSP 291700Z 2918/3024 08008KT 9999 SCT020
Forecast period: 1800 UTC 29 January 2023 to 0000 UTC 31 January 2023
Forecast type: FROM: standard forecast or significant change
Winds: from the E (80 degrees) at 9 MPH (8 knots; 4.1 m/s)
Visibility: 6 or more miles (10+ km)
Ceiling: at least 12,000 feet AGL
Clouds: scattered clouds at 2000 feet AGL
Weather: no significant weather forecast for this period